createdAt,value
2023-05-12T00:00:03.741Z,34.0
2023-05-12T00:02:02.838Z,35.0
2023-05-12T00:04:02.485Z,34.0
2023-05-12T00:06:03.857Z,34.0
2023-05-12T00:08:02.455Z,34.0
2023-05-12T00:10:03.408Z,33.0
2023-05-12T00:12:03.152Z,33.0
2023-05-12T00:14:02.603Z,35.0
2023-05-12T00:16:03.817Z,36.0
2023-05-12T00:18:02.579Z,36.0
2023-05-12T00:20:03.097Z,35.0
2023-05-12T00:22:03.097Z,37.0
2023-05-12T00:24:02.664Z,35.0
2023-05-12T00:26:02.737Z,35.0
2023-05-12T00:28:02.559Z,34.0
2023-05-12T00:30:02.488Z,34.0
2023-05-12T00:32:03.834Z,34.0
2023-05-12T00:34:02.432Z,35.0
2023-05-12T00:36:03.541Z,35.0
2023-05-12T00:38:02.467Z,36.0
2023-05-12T00:40:02.871Z,37.0
2023-05-12T00:42:04.990Z,37.0
2023-05-12T00:44:03.117Z,36.0
2023-05-12T00:46:05.842Z,37.0
2023-05-12T00:48:04.426Z,37.0
2023-05-12T00:50:03.850Z,37.0
2023-05-12T00:52:03.490Z,37.0
2023-05-12T00:54:03.329Z,37.0
2023-05-12T00:56:02.503Z,37.0
2023-05-12T00:58:03.129Z,38.0
2023-05-12T01:00:04.344Z,38.0
2023-05-12T01:02:03.095Z,38.0
2023-05-12T01:04:03.454Z,39.0
2023-05-12T01:06:11.825Z,38.0
2023-05-12T01:08:03.719Z,40.0
2023-05-12T01:10:02.898Z,39.0
2023-05-12T01:12:02.567Z,40.0
2023-05-12T01:14:03.046Z,40.0
2023-05-12T01:16:04.577Z,41.0
2023-05-12T01:18:05.711Z,41.0
2023-05-12T01:20:04.800Z,42.0
2023-05-12T01:22:03.154Z,43.0
2023-05-12T01:24:08.703Z,42.0
2023-05-12T01:26:04.765Z,42.0
2023-05-12T01:28:04.545Z,43.0
2023-05-12T01:30:04.416Z,44.0
2023-05-12T01:32:03.026Z,43.0
2023-05-12T01:34:02.731Z,42.0
2023-05-12T01:36:02.736Z,44.0
2023-05-12T01:38:03.663Z,44.0
2023-05-12T01:40:03.590Z,44.0
2023-05-12T01:42:02.638Z,44.0
2023-05-12T01:44:02.461Z,47.0
2023-05-12T01:46:03.513Z,46.0
2023-05-12T01:48:03.909Z,47.0
2023-05-12T01:50:03.107Z,45.0
2023-05-12T01:52:02.708Z,47.0
2023-05-12T01:54:02.557Z,47.0
2023-05-12T01:56:02.493Z,48.0
2023-05-12T01:58:03.410Z,48.0
2023-05-12T02:00:03.337Z,48.0
2023-05-12T02:02:02.680Z,47.0
2023-05-12T02:04:04.374Z,46.0
2023-05-12T02:06:02.442Z,47.0
2023-05-12T02:08:03.714Z,49.0
2023-05-12T02:10:03.127Z,50.0
2023-05-12T02:12:03.839Z,50.0
2023-05-12T02:14:02.766Z,51.0
2023-05-12T02:16:02.510Z,50.0
2023-05-12T02:18:03.982Z,50.0
2023-05-12T02:20:04.718Z,51.0
2023-05-12T02:22:02.857Z,50.0
2023-05-12T02:24:03.332Z,52.0
2023-05-12T02:26:03.270Z,48.0
2023-05-12T02:28:03.540Z,50.0
2023-05-12T02:30:03.970Z,52.0
2023-05-12T02:32:02.662Z,52.0
2023-05-12T02:34:05.775Z,52.0
2023-05-12T02:36:03.346Z,53.0
2023-05-12T02:38:02.479Z,53.0
2023-05-12T02:40:02.896Z,54.0
2023-05-12T02:42:02.568Z,51.0
2023-05-12T02:44:02.626Z,49.0
2023-05-12T02:46:02.480Z,51.0
2023-05-12T02:48:02.655Z,51.0
2023-05-12T02:50:02.944Z,53.0
2023-05-12T02:52:02.570Z,52.0
2023-05-12T02:54:02.397Z,52.0
2023-05-12T02:56:03.224Z,52.0
2023-05-12T02:58:02.455Z,53.0
2023-05-12T03:00:05.274Z,53.0
2023-05-12T03:02:04.314Z,53.0
2023-05-12T03:04:02.472Z,54.0
2023-05-12T03:06:03.999Z,54.0
2023-05-12T03:08:02.647Z,54.0
2023-05-12T03:10:02.710Z,54.0
2023-05-12T03:12:02.608Z,54.0
2023-05-12T03:14:02.784Z,55.0
2023-05-12T03:16:02.402Z,56.0
2023-05-12T03:18:03.412Z,55.0
2023-05-12T03:20:03.256Z,55.0
2023-05-12T03:22:03.502Z,56.0
2023-05-12T03:24:02.717Z,56.0
2023-05-12T03:26:02.974Z,56.0
2023-05-12T03:28:03.300Z,56.0
2023-05-12T03:30:04.658Z,56.0
2023-05-12T03:32:02.992Z,56.0
2023-05-12T03:34:02.861Z,57.0
2023-05-12T03:36:03.226Z,57.0
2023-05-12T03:38:02.652Z,58.0
2023-05-12T03:40:03.528Z,58.0
2023-05-12T03:42:03.220Z,57.0
2023-05-12T03:44:02.571Z,57.0
2023-05-12T03:46:03.261Z,59.0
2023-05-12T03:48:02.568Z,58.0
2023-05-12T03:50:03.706Z,59.0
2023-05-12T03:52:02.564Z,58.0
2023-05-12T03:54:03.238Z,60.0
2023-05-12T03:56:05.401Z,60.0
2023-05-12T03:58:02.917Z,60.0
2023-05-12T04:00:03.310Z,60.0
2023-05-12T04:02:03.641Z,59.0
2023-05-12T04:04:02.556Z,59.0
2023-05-12T04:06:03.563Z,60.0
2023-05-12T04:08:02.565Z,61.0
2023-05-12T04:10:03.154Z,61.0
2023-05-12T04:12:03.233Z,61.0
2023-05-12T04:14:02.591Z,61.0
2023-05-12T04:16:02.704Z,61.0
2023-05-12T04:18:02.784Z,61.0
2023-05-12T04:20:02.391Z,62.0
2023-05-12T04:22:03.298Z,62.0
2023-05-12T04:24:02.475Z,63.0
2023-05-12T04:26:04.584Z,63.0
2023-05-12T04:28:02.436Z,64.0
2023-05-12T04:30:02.568Z,64.0
2023-05-12T04:32:03.452Z,63.0
2023-05-12T04:34:02.841Z,64.0
2023-05-12T04:36:02.559Z,63.0
2023-05-12T04:38:02.821Z,63.0
2023-05-12T04:40:04.096Z,64.0
2023-05-12T04:42:02.543Z,64.0
2023-05-12T04:44:02.712Z,65.0
2023-05-12T04:46:03.371Z,65.0
2023-05-12T04:48:02.507Z,64.0
2023-05-12T04:50:03.791Z,65.0
2023-05-12T04:52:04.677Z,65.0
2023-05-12T04:54:02.594Z,64.0
2023-05-12T04:56:02.795Z,65.0
2023-05-12T04:58:02.679Z,65.0
2023-05-12T05:00:05.495Z,65.0
2023-05-12T05:02:02.783Z,65.0
2023-05-12T05:04:02.857Z,65.0
2023-05-12T05:06:02.917Z,65.0
2023-05-12T05:08:03.045Z,65.0
2023-05-12T05:10:03.103Z,65.0
2023-05-12T05:12:03.545Z,65.0
2023-05-12T05:14:02.618Z,66.0
2023-05-12T05:16:02.713Z,66.0
2023-05-12T05:18:02.469Z,65.0
2023-05-12T05:22:02.875Z,66.0
2023-05-12T05:24:02.960Z,67.0
2023-05-12T05:26:03.355Z,66.0
2023-05-12T05:28:02.581Z,67.0
2023-05-12T05:30:02.572Z,67.0
2023-05-12T05:32:02.764Z,67.0
2023-05-12T05:34:03.724Z,67.0
2023-05-12T05:36:03.393Z,67.0
2023-05-12T05:38:03.176Z,67.0
2023-05-12T05:40:03.232Z,67.0
2023-05-12T05:42:02.496Z,68.0
2023-05-12T05:44:02.554Z,67.0
2023-05-12T05:46:03.350Z,68.0
2023-05-12T05:48:02.667Z,67.0
2023-05-12T05:50:02.890Z,68.0
2023-05-12T05:52:02.935Z,68.0
2023-05-12T05:54:02.421Z,69.0
2023-05-12T05:56:02.855Z,68.0
2023-05-12T05:58:02.490Z,69.0
2023-05-12T06:00:04.405Z,69.0
2023-05-12T06:02:03.121Z,69.0
2023-05-12T06:04:02.615Z,69.0
2023-05-12T06:06:02.580Z,70.0
2023-05-12T06:08:04.452Z,70.0
2023-05-12T06:10:03.674Z,70.0
2023-05-12T06:12:02.577Z,71.0
2023-05-12T06:14:02.545Z,71.0
2023-05-12T06:16:02.582Z,71.0
2023-05-12T06:18:02.476Z,72.0
2023-05-12T06:20:02.568Z,72.0
2023-05-12T06:22:03.565Z,72.0
2023-05-12T06:24:03.031Z,72.0
2023-05-12T06:26:02.609Z,72.0
2023-05-12T06:28:02.676Z,72.0
2023-05-12T06:30:02.454Z,72.0
2023-05-12T06:32:03.315Z,72.0
2023-05-12T06:34:03.759Z,72.0
2023-05-12T06:36:03.073Z,72.0
2023-05-12T06:38:02.474Z,72.0
2023-05-12T06:40:03.224Z,73.0
2023-05-12T06:42:04.129Z,72.0
2023-05-12T06:44:03.203Z,72.0
2023-05-12T06:46:02.911Z,73.0
2023-05-12T06:48:05.019Z,73.0
2023-05-12T06:50:02.435Z,73.0
2023-05-12T06:52:03.274Z,73.0
2023-05-12T06:54:02.997Z,74.0
2023-05-12T06:56:03.520Z,74.0
2023-05-12T06:58:03.448Z,74.0
2023-05-12T07:00:03.286Z,74.0
2023-05-12T07:02:03.148Z,74.0
2023-05-12T07:04:02.602Z,74.0
2023-05-12T07:06:02.413Z,74.0
2023-05-12T07:08:02.715Z,74.0
2023-05-12T07:10:03.305Z,74.0
2023-05-12T07:12:03.560Z,74.0
2023-05-12T07:14:02.787Z,75.0
2023-05-12T07:16:03.966Z,75.0
2023-05-12T07:18:02.528Z,75.0
2023-05-12T07:20:04.293Z,75.0
2023-05-12T07:22:03.049Z,75.0
2023-05-12T07:24:03.386Z,75.0
2023-05-12T07:26:04.330Z,76.0
2023-05-12T07:28:02.435Z,76.0
2023-05-12T07:30:02.436Z,76.0
2023-05-12T07:32:02.666Z,76.0
2023-05-12T07:34:02.443Z,76.0
2023-05-12T07:36:04.104Z,77.0
2023-05-12T07:38:03.007Z,77.0
2023-05-12T07:40:04.061Z,77.0
2023-05-12T07:42:02.717Z,77.0
2023-05-12T07:44:02.893Z,78.0
2023-05-12T07:46:02.432Z,78.0
2023-05-12T07:48:03.419Z,79.0
2023-05-12T07:50:02.532Z,79.0
2023-05-12T07:52:03.857Z,79.0
2023-05-12T07:54:04.213Z,79.0
2023-05-12T07:56:02.732Z,79.0
2023-05-12T07:58:03.235Z,79.0
2023-05-12T08:00:04.302Z,79.0
2023-05-12T08:02:03.028Z,79.0
2023-05-12T08:04:02.464Z,80.0
2023-05-12T08:06:04.053Z,79.0
2023-05-12T08:08:02.558Z,79.0
2023-05-12T08:10:03.052Z,79.0
2023-05-12T08:12:02.951Z,80.0
2023-05-12T08:14:02.626Z,79.0
2023-05-12T08:16:02.622Z,79.0
2023-05-12T08:18:03.574Z,79.0
2023-05-12T08:20:03.928Z,79.0
2023-05-12T08:22:02.757Z,79.0
2023-05-12T08:24:02.937Z,80.0
2023-05-12T08:26:02.451Z,79.0
2023-05-12T08:28:04.095Z,79.0
2023-05-12T08:30:03.010Z,79.0
2023-05-12T08:32:03.641Z,79.0
2023-05-12T08:34:10.537Z,78.0
2023-05-12T08:36:03.224Z,78.0
2023-05-12T08:38:03.719Z,78.0
2023-05-12T08:40:03.579Z,78.0
2023-05-12T08:42:12.992Z,78.0
2023-05-12T08:44:03.410Z,79.0
2023-05-12T08:46:03.013Z,79.0
2023-05-12T08:48:04.546Z,78.0
2023-05-12T08:50:04.562Z,79.0
2023-05-12T08:52:03.137Z,78.0
2023-05-12T08:54:04.450Z,78.0
2023-05-12T08:58:03.780Z,78.0
2023-05-12T09:00:04.690Z,77.0
2023-05-12T09:02:08.169Z,77.0
2023-05-12T09:04:02.650Z,77.0
2023-05-12T09:06:05.537Z,78.0
2023-05-12T09:08:04.397Z,78.0
2023-05-12T09:10:06.118Z,78.0
2023-05-12T09:12:06.823Z,77.0
2023-05-12T09:14:05.812Z,77.0
2023-05-12T09:16:04.406Z,77.0
2023-05-12T09:18:03.011Z,77.0
2023-05-12T09:20:03.421Z,77.0
2023-05-12T09:22:03.582Z,77.0
2023-05-12T09:24:05.769Z,76.0
2023-05-12T09:26:03.320Z,77.0
2023-05-12T09:28:02.453Z,76.0
2023-05-12T09:30:02.376Z,77.0
2023-05-12T09:32:04.210Z,77.0
2023-05-12T09:34:07.448Z,77.0
2023-05-12T09:36:02.367Z,77.0
2023-05-12T09:38:06.266Z,78.0
2023-05-12T09:40:04.190Z,78.0
2023-05-12T09:42:02.515Z,78.0
2023-05-12T09:44:02.769Z,78.0
2023-05-12T09:46:06.731Z,78.0
2023-05-12T09:48:10.304Z,78.0
2023-05-12T09:50:03.514Z,78.0
2023-05-12T09:52:04.748Z,78.0
2023-05-12T09:54:04.255Z,77.0
2023-05-12T09:56:02.641Z,78.0
2023-05-12T09:58:06.336Z,78.0
2023-05-12T10:00:04.873Z,78.0
2023-05-12T10:02:05.247Z,77.0
2023-05-12T10:04:06.933Z,77.0
2023-05-12T10:06:08.242Z,77.0
2023-05-12T10:08:06.781Z,77.0
2023-05-12T10:10:06.823Z,78.0
2023-05-12T10:12:03.998Z,78.0
2023-05-12T10:14:03.473Z,78.0
2023-05-12T10:16:03.569Z,79.0
2023-05-12T10:18:02.587Z,80.0
2023-05-12T10:20:06.067Z,80.0
2023-05-12T10:22:03.938Z,80.0
2023-05-12T10:24:04.488Z,79.0
2023-05-12T10:26:03.304Z,79.0
2023-05-12T10:28:03.463Z,79.0
2023-05-12T10:30:04.500Z,79.0
2023-05-12T10:32:02.750Z,80.0
2023-05-12T10:34:04.041Z,80.0
2023-05-12T10:36:03.624Z,80.0
2023-05-12T10:38:07.141Z,80.0
2023-05-12T10:40:04.365Z,80.0
2023-05-12T10:42:06.774Z,80.0
2023-05-12T10:44:03.287Z,80.0
2023-05-12T10:46:15.426Z,80.0
2023-05-12T10:48:07.771Z,80.0
2023-05-12T10:50:03.028Z,80.0
2023-05-12T10:52:02.492Z,80.0
2023-05-12T10:54:03.772Z,80.0
2023-05-12T10:56:05.306Z,81.0
2023-05-12T10:58:10.384Z,81.0
2023-05-12T11:00:04.300Z,82.0
2023-05-12T11:02:05.457Z,81.0
2023-05-12T11:04:12.964Z,82.0
2023-05-12T11:06:05.469Z,82.0
2023-05-12T11:08:02.913Z,82.0
2023-05-12T11:10:05.723Z,81.0
2023-05-12T11:12:02.866Z,81.0
2023-05-12T11:14:03.214Z,81.0
2023-05-12T11:16:02.604Z,81.0
2023-05-12T11:18:03.376Z,81.0
2023-05-12T11:20:02.874Z,81.0
2023-05-12T11:22:06.734Z,81.0
2023-05-12T11:24:03.267Z,82.0
2023-05-12T11:26:04.345Z,82.0
2023-05-12T11:28:02.864Z,82.0
2023-05-12T11:30:03.781Z,82.0
2023-05-12T11:32:02.642Z,82.0
2023-05-12T11:34:11.812Z,82.0
2023-05-12T11:36:05.619Z,82.0
2023-05-12T11:38:03.344Z,81.0
2023-05-12T11:40:02.462Z,81.0
2023-05-12T11:42:12.185Z,81.0
2023-05-12T11:44:14.480Z,81.0
2023-05-12T11:46:02.484Z,82.0
2023-05-12T11:48:12.570Z,81.0
2023-05-12T11:50:04.125Z,82.0
2023-05-12T11:52:03.323Z,83.0
2023-05-12T11:54:02.500Z,83.0
2023-05-12T11:56:02.901Z,83.0
2023-05-12T11:58:04.236Z,83.0
2023-05-12T12:00:08.535Z,83.0
2023-05-12T12:02:03.792Z,83.0
2023-05-12T12:04:02.532Z,83.0
2023-05-12T12:06:06.144Z,83.0
2023-05-12T12:08:08.378Z,83.0
2023-05-12T12:10:12.503Z,83.0
2023-05-12T12:12:04.546Z,83.0
2023-05-12T12:14:03.082Z,83.0
2023-05-12T12:16:02.455Z,83.0
2023-05-12T12:18:02.595Z,83.0
2023-05-12T12:20:02.811Z,84.0
2023-05-12T12:22:02.756Z,84.0
2023-05-12T12:24:02.448Z,84.0
2023-05-12T12:26:02.761Z,84.0
2023-05-12T12:28:02.771Z,85.0
2023-05-12T12:30:03.349Z,86.0
2023-05-12T12:32:02.656Z,86.0
2023-05-12T12:34:03.965Z,86.0
2023-05-12T12:36:03.152Z,86.0
2023-05-12T12:38:03.050Z,86.0
2023-05-12T12:40:07.481Z,86.0
2023-05-12T12:42:03.110Z,86.0
2023-05-12T12:44:02.982Z,86.0
2023-05-12T12:46:02.478Z,86.0
2023-05-12T12:48:02.454Z,87.0
2023-05-12T12:50:03.470Z,87.0
2023-05-12T12:52:02.429Z,88.0
2023-05-12T12:54:02.368Z,88.0
2023-05-12T12:56:03.412Z,88.0
2023-05-12T12:58:03.087Z,88.0
2023-05-12T13:00:03.980Z,88.0
2023-05-12T13:02:03.398Z,88.0
2023-05-12T13:04:03.949Z,88.0
2023-05-12T13:06:02.671Z,88.0
2023-05-12T13:08:03.150Z,88.0
2023-05-12T13:10:03.363Z,88.0
2023-05-12T13:12:03.293Z,88.0
2023-05-12T13:14:03.845Z,88.0
2023-05-12T13:16:02.440Z,88.0
2023-05-12T13:18:02.492Z,88.0
2023-05-12T13:20:03.390Z,88.0
2023-05-12T13:22:02.444Z,89.0
2023-05-12T13:24:03.742Z,89.0
2023-05-12T13:26:03.111Z,89.0
2023-05-12T13:28:03.837Z,89.0
2023-05-12T13:30:04.277Z,89.0
2023-05-12T13:32:03.133Z,89.0
2023-05-12T13:34:02.938Z,89.0
2023-05-12T13:36:02.812Z,89.0
2023-05-12T13:38:02.651Z,89.0
2023-05-12T13:40:02.464Z,89.0
2023-05-12T13:42:02.680Z,89.0
2023-05-12T13:44:02.664Z,89.0
2023-05-12T13:46:02.664Z,89.0
2023-05-12T13:48:02.548Z,89.0
2023-05-12T13:50:02.462Z,89.0
2023-05-12T13:52:03.350Z,89.0
2023-05-12T13:54:02.476Z,89.0
2023-05-12T13:56:02.682Z,89.0
2023-05-12T13:58:02.469Z,89.0
2023-05-12T14:00:02.772Z,89.0
2023-05-12T14:02:02.811Z,89.0
2023-05-12T14:04:02.530Z,89.0
2023-05-12T14:06:03.398Z,89.0
2023-05-12T14:08:03.290Z,89.0
2023-05-12T14:10:02.532Z,89.0
2023-05-12T14:12:03.784Z,89.0
2023-05-12T14:14:02.934Z,89.0
2023-05-12T14:16:03.660Z,90.0
2023-05-12T14:18:02.650Z,89.0
2023-05-12T14:20:04.003Z,89.0
2023-05-12T14:22:05.812Z,89.0
2023-05-12T14:24:03.017Z,89.0
2023-05-12T14:26:03.032Z,89.0
2023-05-12T14:28:03.013Z,89.0
2023-05-12T14:30:03.235Z,88.0
2023-05-12T14:32:03.708Z,88.0
2023-05-12T14:34:03.928Z,88.0
2023-05-12T14:36:07.325Z,88.0
2023-05-12T14:38:03.202Z,88.0
2023-05-12T14:40:02.464Z,88.0
2023-05-12T14:42:03.317Z,87.0
2023-05-12T14:44:02.650Z,87.0
2023-05-12T14:46:03.890Z,87.0
2023-05-12T14:48:02.477Z,86.0
2023-05-12T14:50:03.166Z,85.0
2023-05-12T14:52:03.319Z,85.0
2023-05-12T14:54:04.076Z,84.0
2023-05-12T14:56:02.791Z,84.0
2023-05-12T14:58:02.492Z,83.0
2023-05-12T15:00:02.398Z,83.0
2023-05-12T15:02:03.331Z,83.0
2023-05-12T15:04:02.412Z,83.0
2023-05-12T15:06:06.428Z,80.0
2023-05-12T15:08:03.059Z,80.0
2023-05-12T15:10:03.397Z,79.0
2023-05-12T15:12:03.510Z,77.0
2023-05-12T15:14:03.636Z,77.0
2023-05-12T15:16:04.324Z,76.0
2023-05-12T15:18:02.479Z,74.0
2023-05-12T15:20:03.417Z,73.0
2023-05-12T15:22:02.463Z,72.0
2023-05-12T15:24:03.226Z,71.0
2023-05-12T15:26:15.416Z,70.0
2023-05-12T15:28:02.392Z,69.0
2023-05-12T15:30:03.805Z,69.0
2023-05-12T15:32:03.301Z,69.0
2023-05-12T15:34:02.957Z,69.0
2023-05-12T15:36:02.360Z,69.0
2023-05-12T15:38:03.114Z,70.0
2023-05-12T15:40:02.732Z,70.0
2023-05-12T15:42:05.453Z,70.0
2023-05-12T15:44:02.799Z,68.0
2023-05-12T15:46:03.924Z,67.0
2023-05-12T15:48:03.056Z,68.0
2023-05-12T15:50:03.921Z,68.0
2023-05-12T15:52:02.418Z,67.0
2023-05-12T15:54:02.936Z,65.0
2023-05-12T15:56:04.803Z,64.0
2023-05-12T15:58:03.590Z,60.0
2023-05-12T16:00:02.792Z,61.0
2023-05-12T16:02:02.685Z,60.0
2023-05-12T16:04:02.602Z,61.0
2023-05-12T16:06:02.631Z,60.0
2023-05-12T16:08:02.567Z,60.0
2023-05-12T16:10:03.238Z,61.0
2023-05-12T16:12:02.477Z,60.0
2023-05-12T16:14:02.810Z,61.0
2023-05-12T16:16:03.052Z,60.0
2023-05-12T16:18:03.068Z,61.0
2023-05-12T16:20:02.710Z,62.0
2023-05-12T16:22:02.724Z,62.0
2023-05-12T16:24:02.933Z,62.0
2023-05-12T16:26:02.819Z,63.0
2023-05-12T16:28:02.985Z,64.0
2023-05-12T16:30:02.903Z,64.0
2023-05-12T16:32:03.214Z,64.0
2023-05-12T16:34:02.916Z,63.0
2023-05-12T16:36:02.557Z,63.0
2023-05-12T16:38:02.940Z,63.0
2023-05-12T16:40:02.425Z,65.0
2023-05-12T16:42:02.793Z,64.0
2023-05-12T16:44:02.591Z,63.0
2023-05-12T16:46:03.852Z,63.0
2023-05-12T16:48:02.532Z,62.0
2023-05-12T16:50:03.007Z,61.0
2023-05-12T16:52:02.666Z,61.0
2023-05-12T16:54:02.487Z,60.0
2023-05-12T16:56:03.530Z,60.0
2023-05-12T16:58:02.652Z,60.0
2023-05-12T17:00:05.267Z,60.0
2023-05-12T17:02:03.516Z,59.0
2023-05-12T17:04:02.652Z,59.0
2023-05-12T17:06:03.459Z,59.0
2023-05-12T17:08:03.020Z,59.0
2023-05-12T17:10:03.550Z,57.0
2023-05-12T17:12:03.955Z,53.0
2023-05-12T17:14:03.607Z,55.0
2023-05-12T17:16:02.725Z,54.0
2023-05-12T17:18:02.418Z,55.0
2023-05-12T17:20:03.312Z,54.0
2023-05-12T17:22:03.221Z,52.0
2023-05-12T17:24:02.658Z,51.0
2023-05-12T17:26:03.840Z,53.0
2023-05-12T17:28:02.530Z,51.0
2023-05-12T17:30:03.953Z,47.0
2023-05-12T17:32:02.638Z,46.0
2023-05-12T17:34:02.800Z,45.0
2023-05-12T17:36:11.818Z,46.0
2023-05-12T17:38:02.685Z,45.0
2023-05-12T17:40:03.831Z,47.0
2023-05-12T17:42:02.678Z,46.0
2023-05-12T17:44:02.581Z,47.0
2023-05-12T17:46:04.149Z,47.0
2023-05-12T17:48:02.541Z,47.0
2023-05-12T17:50:02.887Z,46.0
2023-05-12T17:52:03.330Z,48.0
2023-05-12T17:54:03.362Z,47.0
2023-05-12T17:56:03.145Z,45.0
2023-05-12T17:58:02.626Z,45.0
2023-05-12T18:00:08.802Z,43.0
2023-05-12T18:02:03.473Z,45.0
2023-05-12T18:04:02.443Z,45.0
2023-05-12T18:06:02.545Z,44.0
2023-05-12T18:08:02.572Z,44.0
2023-05-12T18:10:02.722Z,41.0
2023-05-12T18:12:02.399Z,42.0
2023-05-12T18:14:05.338Z,42.0
2023-05-12T18:16:02.967Z,41.0
2023-05-12T18:18:03.237Z,40.0
2023-05-12T18:20:03.592Z,42.0
2023-05-12T18:22:02.548Z,38.0
2023-05-12T18:24:03.080Z,38.0
2023-05-12T18:26:03.248Z,41.0
2023-05-12T18:28:02.522Z,41.0
2023-05-12T18:30:03.378Z,40.0
2023-05-12T18:32:02.678Z,42.0
2023-05-12T18:34:05.601Z,42.0
2023-05-12T18:36:03.022Z,43.0
2023-05-12T18:38:02.599Z,41.0
2023-05-12T18:40:04.548Z,42.0
2023-05-12T18:42:02.910Z,43.0
2023-05-12T18:44:03.115Z,43.0
2023-05-12T18:46:03.116Z,43.0
2023-05-12T18:48:02.504Z,41.0
2023-05-12T18:50:03.698Z,46.0
2023-05-12T18:52:03.528Z,41.0
2023-05-12T18:54:02.620Z,40.0
2023-05-12T18:56:03.078Z,42.0
2023-05-12T18:58:03.414Z,41.0
2023-05-12T19:00:04.340Z,41.0
2023-05-12T19:02:03.226Z,42.0
2023-05-12T19:04:03.433Z,45.0
2023-05-12T19:06:03.327Z,42.0
2023-05-12T19:08:03.043Z,42.0
2023-05-12T19:10:02.762Z,40.0
2023-05-12T19:12:05.422Z,40.0
2023-05-12T19:14:02.614Z,40.0
2023-05-12T19:16:02.681Z,39.0
2023-05-12T19:18:03.551Z,43.0
2023-05-12T19:20:02.694Z,40.0
2023-05-12T19:22:03.845Z,40.0
2023-05-12T19:24:02.550Z,39.0
2023-05-12T19:26:02.508Z,38.0
2023-05-12T19:28:02.666Z,39.0
2023-05-12T19:30:04.559Z,38.0
2023-05-12T19:32:02.773Z,37.0
2023-05-12T19:34:02.886Z,38.0
2023-05-12T19:36:03.342Z,36.0
2023-05-12T19:38:02.504Z,37.0
2023-05-12T19:40:03.440Z,39.0
2023-05-12T19:42:02.554Z,40.0
2023-05-12T19:44:02.412Z,38.0
2023-05-12T19:46:02.572Z,38.0
2023-05-12T19:48:03.183Z,39.0
2023-05-12T19:50:03.093Z,38.0
2023-05-12T19:52:04.931Z,37.0
2023-05-12T19:54:05.711Z,37.0
2023-05-12T19:56:02.422Z,35.0
2023-05-12T19:58:02.521Z,34.0
2023-05-12T20:00:02.441Z,37.0
2023-05-12T20:02:03.071Z,37.0
2023-05-12T20:04:03.243Z,38.0
2023-05-12T20:06:02.583Z,35.0
2023-05-12T20:08:02.619Z,35.0
2023-05-12T20:10:02.551Z,36.0
2023-05-12T20:12:03.222Z,36.0
2023-05-12T20:14:02.569Z,37.0
2023-05-12T20:16:03.208Z,35.0
2023-05-12T20:18:03.309Z,36.0
2023-05-12T20:20:03.692Z,36.0
2023-05-12T20:22:02.704Z,37.0
2023-05-12T20:24:02.625Z,36.0
2023-05-12T20:26:03.575Z,36.0
2023-05-12T20:28:03.355Z,34.0
2023-05-12T20:30:02.673Z,34.0
2023-05-12T20:32:02.436Z,33.0
2023-05-12T20:34:03.269Z,34.0
2023-05-12T20:36:02.766Z,34.0
2023-05-12T20:38:02.510Z,31.0
2023-05-12T20:40:04.825Z,34.0
2023-05-12T20:42:03.255Z,35.0
2023-05-12T20:44:02.952Z,33.0
2023-05-12T20:46:03.936Z,33.0
2023-05-12T20:48:03.715Z,34.0
2023-05-12T20:50:04.940Z,35.0
2023-05-12T20:52:02.602Z,33.0
2023-05-12T20:54:03.065Z,33.0
2023-05-12T20:56:02.382Z,35.0
2023-05-12T20:58:02.374Z,34.0
2023-05-12T21:00:03.287Z,35.0
2023-05-12T21:02:03.007Z,35.0
2023-05-12T21:04:02.857Z,35.0
2023-05-12T21:06:05.451Z,35.0
2023-05-12T21:08:02.406Z,36.0
2023-05-12T21:10:03.341Z,36.0
2023-05-12T21:12:02.445Z,36.0
2023-05-12T21:14:02.999Z,36.0
2023-05-12T21:16:02.647Z,33.0
2023-05-12T21:18:02.554Z,36.0
2023-05-12T21:20:02.513Z,33.0
2023-05-12T21:22:02.562Z,33.0
2023-05-12T21:24:03.294Z,34.0
2023-05-12T21:26:02.948Z,35.0
2023-05-12T21:28:02.943Z,36.0
2023-05-12T21:30:02.582Z,34.0
2023-05-12T21:32:02.572Z,36.0
2023-05-12T21:34:02.931Z,36.0
2023-05-12T21:36:03.074Z,36.0
2023-05-12T21:38:02.477Z,35.0
2023-05-12T21:40:03.246Z,35.0
2023-05-12T21:42:02.656Z,35.0
2023-05-12T21:44:02.708Z,36.0
2023-05-12T21:46:03.271Z,36.0
2023-05-12T21:48:03.308Z,36.0
2023-05-12T21:50:03.829Z,36.0
2023-05-12T21:52:02.856Z,37.0
2023-05-12T21:54:02.363Z,36.0
2023-05-12T21:56:02.453Z,38.0
2023-05-12T21:58:03.142Z,36.0
2023-05-12T22:00:03.516Z,37.0
2023-05-12T22:02:03.543Z,37.0
2023-05-12T22:04:04.075Z,37.0
2023-05-12T22:06:02.408Z,37.0
2023-05-12T22:08:02.386Z,37.0
2023-05-12T22:10:03.330Z,37.0
2023-05-12T22:12:02.366Z,36.0
2023-05-12T22:14:03.833Z,37.0
2023-05-12T22:16:03.359Z,37.0
2023-05-12T22:18:03.032Z,38.0
2023-05-12T22:20:03.631Z,36.0
2023-05-12T22:22:02.458Z,34.0
2023-05-12T22:24:03.172Z,36.0
2023-05-12T22:26:02.610Z,35.0
2023-05-12T22:28:02.637Z,35.0
2023-05-12T22:30:02.626Z,35.0
2023-05-12T22:32:02.605Z,36.0
2023-05-12T22:34:02.475Z,37.0
2023-05-12T22:36:02.576Z,36.0
2023-05-12T22:38:02.790Z,37.0
2023-05-12T22:40:03.308Z,37.0
2023-05-12T22:42:02.681Z,35.0
2023-05-12T22:44:02.588Z,35.0
2023-05-12T22:46:05.300Z,35.0
2023-05-12T22:48:03.261Z,35.0
2023-05-12T22:50:03.242Z,36.0
2023-05-12T22:52:02.841Z,35.0
2023-05-12T22:54:02.387Z,33.0
2023-05-12T22:56:02.704Z,35.0
2023-05-12T22:58:03.186Z,34.0
2023-05-12T23:00:03.144Z,32.0
2023-05-12T23:02:02.590Z,33.0
2023-05-12T23:04:02.788Z,34.0
2023-05-12T23:06:03.207Z,35.0
2023-05-12T23:08:02.448Z,32.0
2023-05-12T23:10:02.594Z,33.0
2023-05-12T23:12:02.419Z,34.0
2023-05-12T23:14:02.614Z,35.0
2023-05-12T23:16:02.689Z,34.0
2023-05-12T23:18:03.118Z,34.0
2023-05-12T23:20:02.522Z,33.0
2023-05-12T23:22:03.003Z,35.0
2023-05-12T23:24:02.995Z,34.0
2023-05-12T23:26:03.180Z,34.0
2023-05-12T23:28:02.581Z,35.0
2023-05-12T23:30:02.791Z,33.0
2023-05-12T23:32:03.153Z,34.0
2023-05-12T23:34:02.418Z,34.0
2023-05-12T23:36:02.563Z,34.0
2023-05-12T23:38:02.604Z,34.0
2023-05-12T23:40:03.495Z,32.0
2023-05-12T23:42:03.261Z,33.0
2023-05-12T23:44:02.587Z,32.0
2023-05-12T23:46:03.351Z,31.0
2023-05-12T23:48:03.013Z,31.0
2023-05-12T23:50:02.850Z,31.0
2023-05-12T23:52:03.504Z,31.0
2023-05-12T23:54:02.404Z,30.0
2023-05-12T23:56:02.435Z,30.0
2023-05-12T23:58:02.491Z,30.0
